CheckWX is a tool to help pilots better visualize weather data.  It is not intended as a substitute for an official pre-flight weather briefing.

09:10:26 UTC

LIPH METAR
Treviso-Sant'Angelo Airport
Treviso, Italy
Current

20 mins ago

LIPH 170850Z VRB02KT CAVOK 26/16 Q1013
Observed
Jul-17 @ 08:50 UTC
Wind
  • Variable at 2 KTS
Visibility
10,000+ meters
Flight Rules
VFR
Cloud Levels
  • Clear skies
Temperature
26°C / 79°F
Dewpoint
16°C / 61°F
Humidity
54%
Altimeter
29.91" Hg
Pressure
1012.92 hPa
Previous

50 mins ago

LIPH 170820Z VRB02KT CAVOK 25/16 Q1013
Observed
Jul-17 @ 08:20 UTC
Wind
  • Variable at 2 KTS
Visibility
10,000+ meters
Flight Rules
VFR
Cloud Levels
  • Clear skies
Temperature
25°C / 77°F
Dewpoint
16°C / 61°F
Humidity
57%
Altimeter
29.91" Hg
Pressure
1012.92 hPa
Previous

1 hour ago

LIPH 170750Z VRB03KT CAVOK 24/16 Q1013
Observed
Jul-17 @ 07:50 UTC
Wind
  • Variable at 3 KTS
Visibility
10,000+ meters
Flight Rules
VFR
Cloud Levels
  • Clear skies
Temperature
24°C / 75°F
Dewpoint
16°C / 61°F
Humidity
61%
Altimeter
29.91" Hg
Pressure
1012.92 hPa